createdAt,value
2022-10-27T00:00:33.607Z,8.08
2022-10-27T00:03:00.227Z,8.09
2022-10-27T00:05:26.890Z,8.09
2022-10-27T00:07:53.761Z,8.08
2022-10-27T00:10:20.369Z,8.04
2022-10-27T00:12:46.889Z,8.06
2022-10-27T00:15:14.353Z,8.00
2022-10-27T00:17:41.141Z,7.98
2022-10-27T00:20:08.681Z,7.97
2022-10-27T00:22:35.216Z,7.97
2022-10-27T00:25:01.894Z,7.88
2022-10-27T00:27:28.564Z,7.82
2022-10-27T00:29:55.004Z,7.85
2022-10-27T00:32:21.515Z,7.78
2022-10-27T00:34:47.919Z,7.88
2022-10-27T00:37:14.499Z,7.85
2022-10-27T00:39:40.881Z,7.87
2022-10-27T00:42:12.042Z,7.81
2022-10-27T00:44:41.125Z,7.81
2022-10-27T00:47:19.134Z,7.80
2022-10-27T00:49:57.461Z,7.94
2022-10-27T00:52:27.461Z,7.85
2022-10-27T00:54:57.097Z,7.79
2022-10-27T00:57:24.152Z,7.74
2022-10-27T00:59:50.577Z,7.70
2022-10-27T01:02:17.396Z,7.65
2022-10-27T01:04:50.885Z,7.65
2022-10-27T01:07:19.418Z,7.61
2022-10-27T01:09:46.814Z,7.61
2022-10-27T01:12:13.226Z,7.58
2022-10-27T01:14:39.939Z,7.48
2022-10-27T01:17:40.121Z,7.50
2022-10-27T01:20:27.737Z,7.45
2022-10-27T01:23:24.830Z,7.47
2022-10-27T01:26:21.650Z,7.49
2022-10-27T01:29:03.806Z,7.62
2022-10-27T01:31:36.417Z,7.51
2022-10-27T01:34:21.513Z,7.46
2022-10-27T01:37:13.650Z,7.53
2022-10-27T01:39:53.258Z,7.53
2022-10-27T01:42:32.582Z,7.52
2022-10-27T01:45:00.610Z,7.58
2022-10-27T01:47:27.421Z,7.39
2022-10-27T01:49:56.756Z,7.34
2022-10-27T01:52:43.533Z,7.47
2022-10-27T01:55:47.263Z,7.49
2022-10-27T01:58:39.772Z,7.45
2022-10-27T02:01:43.228Z,7.40
2022-10-27T02:04:18.405Z,7.35
2022-10-27T02:06:55.838Z,7.32
2022-10-27T02:09:33.899Z,7.27
2022-10-27T02:12:04.639Z,7.28
2022-10-27T02:14:31.581Z,7.21
2022-10-27T02:16:59.546Z,7.09
2022-10-27T02:19:30.173Z,7.03
2022-10-27T02:22:00.643Z,7.13
2022-10-27T02:24:28.030Z,7.09
2022-10-27T02:27:17.863Z,7.09
2022-10-27T02:29:47.837Z,7.03
2022-10-27T02:32:18.801Z,7.02
2022-10-27T02:34:47.074Z,7.09
2022-10-27T02:37:25.440Z,7.03
2022-10-27T02:39:51.973Z,6.92
2022-10-27T02:42:18.364Z,6.74
2022-10-27T02:44:44.741Z,6.72
2022-10-27T02:47:11.103Z,6.79
2022-10-27T02:49:37.476Z,6.76
2022-10-27T02:52:04.718Z,6.73
2022-10-27T02:54:31.738Z,6.59
2022-10-27T02:56:58.790Z,6.56
2022-10-27T02:59:25.532Z,6.67
2022-10-27T03:01:52.145Z,6.74
2022-10-27T03:04:18.678Z,6.76
2022-10-27T03:06:45.085Z,6.76
2022-10-27T03:09:11.457Z,6.84
2022-10-27T03:11:39.555Z,6.80
2022-10-27T03:14:07.970Z,6.79
2022-10-27T03:16:34.358Z,6.73
2022-10-27T03:19:00.749Z,6.74
2022-10-27T03:21:27.096Z,6.47
2022-10-27T03:23:53.477Z,6.50
2022-10-27T03:26:19.874Z,6.52
2022-10-27T03:28:46.242Z,6.34
2022-10-27T03:31:12.633Z,6.39
2022-10-27T03:33:38.999Z,6.51
2022-10-27T03:36:05.780Z,6.60
2022-10-27T03:38:32.258Z,6.68
2022-10-27T03:40:58.646Z,6.70
2022-10-27T03:43:25.171Z,6.69
2022-10-27T03:45:55.075Z,6.73
2022-10-27T03:48:23.645Z,6.68
2022-10-27T03:50:51.067Z,6.65
2022-10-27T03:53:18.069Z,6.48
2022-10-27T03:55:44.923Z,6.50
2022-10-27T03:58:16.829Z,6.41
2022-10-27T04:00:44.573Z,6.46
2022-10-27T04:03:11.437Z,6.47
2022-10-27T04:05:37.818Z,6.45
2022-10-27T04:08:04.285Z,6.32
2022-10-27T04:10:30.667Z,6.37
2022-10-27T04:12:57.563Z,6.45
2022-10-27T04:15:26.520Z,6.49
2022-10-27T04:17:57.595Z,6.54
2022-10-27T04:20:24.585Z,6.57
2022-10-27T04:22:51.604Z,6.61
2022-10-27T04:25:18.353Z,6.63
2022-10-27T04:27:44.825Z,6.67
2022-10-27T04:30:11.712Z,6.66
2022-10-27T04:32:38.211Z,6.62
2022-10-27T04:35:05.918Z,6.58
2022-10-27T04:37:34.016Z,6.55
2022-10-27T04:40:00.796Z,6.54
2022-10-27T04:42:27.188Z,6.52
2022-10-27T04:44:53.672Z,6.52
2022-10-27T04:47:20.056Z,6.59
2022-10-27T04:49:46.616Z,6.59
2022-10-27T04:54:44.902Z,6.56
2022-10-27T04:57:11.502Z,6.46
2022-10-27T04:59:37.929Z,6.43
2022-10-27T05:02:04.506Z,6.42
2022-10-27T05:04:30.904Z,6.36
2022-10-27T05:06:57.415Z,6.37
2022-10-27T05:09:23.785Z,6.38
2022-10-27T05:11:50.260Z,6.36
2022-10-27T05:14:16.712Z,6.31
2022-10-27T05:16:43.064Z,6.26
2022-10-27T05:19:09.423Z,6.27
2022-10-27T05:21:35.843Z,6.24
2022-10-27T05:24:02.303Z,6.35
2022-10-27T05:26:29.429Z,6.39
2022-10-27T05:28:57.370Z,6.47
2022-10-27T05:31:23.739Z,6.46
2022-10-27T05:33:50.172Z,6.42
2022-10-27T05:36:16.588Z,6.47
2022-10-27T05:38:45.803Z,6.44
2022-10-27T05:41:12.190Z,6.45
2022-10-27T05:43:41.527Z,6.50
2022-10-27T05:46:09.025Z,6.52
2022-10-27T05:48:38.209Z,6.54
2022-10-27T05:51:08.074Z,6.46
2022-10-27T05:53:34.435Z,6.51
2022-10-27T05:56:01.018Z,6.55
2022-10-27T05:58:27.366Z,6.37
2022-10-27T06:00:58.750Z,6.47
2022-10-27T06:03:26.005Z,6.52
2022-10-27T06:05:53.440Z,6.57
2022-10-27T06:08:20.709Z,6.70
2022-10-27T06:10:48.008Z,6.55
2022-10-27T06:13:14.749Z,6.52
2022-10-27T06:18:11.325Z,6.74
2022-10-27T06:20:37.743Z,6.89
2022-10-27T06:23:05.714Z,6.94
2022-10-27T06:25:32.120Z,6.96
2022-10-27T06:27:58.703Z,7.12
2022-10-27T06:30:25.191Z,7.19
2022-10-27T06:32:52.003Z,7.27
2022-10-27T06:35:19.645Z,7.35
2022-10-27T06:37:46.814Z,7.37
2022-10-27T06:40:16.363Z,7.24
2022-10-27T06:43:01.702Z,7.26
2022-10-27T06:45:29.362Z,7.13
2022-10-27T06:47:58.068Z,7.17
2022-10-27T06:50:24.542Z,7.41
2022-10-27T06:52:51.809Z,7.50
2022-10-27T06:55:19.093Z,7.72
2022-10-27T06:57:45.464Z,7.84
2022-10-27T07:00:12.626Z,8.00
2022-10-27T07:02:39.104Z,8.15
2022-10-27T07:05:07.553Z,8.22
2022-10-27T07:07:34.785Z,8.23
2022-10-27T07:10:01.178Z,8.30
2022-10-27T07:12:27.811Z,8.38
2022-10-27T07:14:54.281Z,8.68
2022-10-27T07:19:52.154Z,9.01
2022-10-27T07:22:18.662Z,9.23
2022-10-27T07:24:45.068Z,9.31
2022-10-27T07:27:11.470Z,9.56
2022-10-27T07:29:37.922Z,9.77
2022-10-27T07:32:04.628Z,10.07
2022-10-27T07:34:31.013Z,10.42
2022-10-27T07:36:57.397Z,10.88
2022-10-27T07:39:23.751Z,11.53
2022-10-27T07:41:50.115Z,12.11
2022-10-27T07:44:16.729Z,12.65
2022-10-27T07:46:43.230Z,12.94
2022-10-27T07:49:09.622Z,13.22
2022-10-27T07:51:36.075Z,13.31
2022-10-27T07:54:02.612Z,13.24
2022-10-27T07:56:29.079Z,13.40
2022-10-27T07:58:55.486Z,13.58
2022-10-27T08:01:22.022Z,13.68
2022-10-27T08:03:51.120Z,13.77
2022-10-27T08:06:17.954Z,13.77
2022-10-27T08:08:44.433Z,13.69
2022-10-27T08:11:10.827Z,13.77
2022-10-27T08:13:37.182Z,14.23
2022-10-27T08:16:03.636Z,14.39
2022-10-27T08:18:30.003Z,14.48
2022-10-27T08:20:56.465Z,14.65
2022-10-27T08:23:25.508Z,14.96
2022-10-27T08:25:52.844Z,15.37
2022-10-27T08:28:19.388Z,15.69
2022-10-27T08:30:52.316Z,16.07
2022-10-27T08:33:22.488Z,16.25
2022-10-27T08:35:50.607Z,16.20
2022-10-27T08:38:18.319Z,16.37
2022-10-27T08:41:07.745Z,16.48
2022-10-27T08:43:46.001Z,17.03
2022-10-27T08:46:31.041Z,17.40
2022-10-27T08:49:05.279Z,17.70
2022-10-27T08:51:35.060Z,17.81
2022-10-27T08:54:04.385Z,18.10
2022-10-27T08:56:39.213Z,18.24
2022-10-27T08:59:05.916Z,18.64
2022-10-27T09:01:49.820Z,18.88
2022-10-27T09:04:28.870Z,19.24
2022-10-27T09:07:16.721Z,19.59
2022-10-27T09:09:52.410Z,20.04
2022-10-27T09:12:26.536Z,20.11
2022-10-27T09:15:15.813Z,21.16
2022-10-27T09:17:49.047Z,21.34
2022-10-27T09:20:35.237Z,20.82
2022-10-27T09:23:06.786Z,20.56
2022-10-27T09:25:38.379Z,21.25
2022-10-27T09:28:05.911Z,20.88
2022-10-27T09:30:35.406Z,21.28
2022-10-27T09:33:01.845Z,21.10
2022-10-27T09:35:31.626Z,20.57
2022-10-27T09:37:59.636Z,20.77
2022-10-27T09:40:28.752Z,22.55
2022-10-27T09:42:56.604Z,24.13
2022-10-27T09:45:25.457Z,23.90
2022-10-27T09:47:56.519Z,25.86
2022-10-27T09:50:26.216Z,26.15
2022-10-27T09:52:55.141Z,24.92
2022-10-27T09:55:21.849Z,26.91
2022-10-27T09:57:50.046Z,26.48
2022-10-27T10:00:16.740Z,27.05
2022-10-27T10:02:54.514Z,26.88
2022-10-27T10:05:27.047Z,27.12
2022-10-27T10:08:16.674Z,25.19
2022-10-27T10:11:02.581Z,26.77
2022-10-27T10:13:30.923Z,26.16
2022-10-27T10:16:12.797Z,26.12
2022-10-27T10:18:41.126Z,26.34
2022-10-27T10:21:10.714Z,26.74
2022-10-27T10:23:57.874Z,26.37
2022-10-27T10:26:29.532Z,27.10
2022-10-27T10:29:06.928Z,27.43
2022-10-27T10:31:33.545Z,27.50
2022-10-27T10:34:05.012Z,27.64
2022-10-27T10:36:39.776Z,26.75
2022-10-27T10:39:29.936Z,25.94
2022-10-27T10:42:17.531Z,25.28
2022-10-27T10:44:47.988Z,26.05
2022-10-27T10:47:29.544Z,25.80
2022-10-27T10:50:02.113Z,25.40
2022-10-27T10:52:38.192Z,26.15
2022-10-27T10:55:18.283Z,26.26
2022-10-27T10:57:46.332Z,26.40
2022-10-27T11:00:17.796Z,26.58
2022-10-27T11:02:59.253Z,26.78
2022-10-27T11:05:32.003Z,26.14
2022-10-27T11:07:59.143Z,25.22
2022-10-27T11:10:28.208Z,26.72
2022-10-27T11:13:00.432Z,26.82
2022-10-27T11:15:42.724Z,27.26
2022-10-27T11:18:12.137Z,26.56
2022-10-27T11:20:38.785Z,26.57
2022-10-27T11:23:28.412Z,27.23
2022-10-27T11:25:58.361Z,27.05
2022-10-27T11:28:44.566Z,26.83
2022-10-27T11:31:24.352Z,27.12
2022-10-27T11:34:16.883Z,26.11
2022-10-27T11:36:59.343Z,26.47
2022-10-27T11:39:43.627Z,26.78
2022-10-27T11:42:30.500Z,27.36
2022-10-27T11:45:35.358Z,27.03
2022-10-27T11:48:13.407Z,27.04
2022-10-27T11:50:53.679Z,27.64
2022-10-27T11:53:20.273Z,27.49
2022-10-27T11:56:18.805Z,27.42
2022-10-27T11:58:51.945Z,28.42
2022-10-27T12:01:49.028Z,28.75
2022-10-27T12:04:39.947Z,27.94
2022-10-27T12:07:28.758Z,26.44
2022-10-27T12:10:10.355Z,27.63
2022-10-27T12:12:44.885Z,27.18
2022-10-27T12:15:35.586Z,27.23
2022-10-27T12:18:13.443Z,26.17
2022-10-27T12:20:51.709Z,26.88
2022-10-27T12:23:24.409Z,28.12
2022-10-27T12:26:11.774Z,24.49
2022-10-27T12:28:38.762Z,26.11
2022-10-27T12:31:12.512Z,26.48
2022-10-27T12:33:48.066Z,26.98
2022-10-27T12:36:20.531Z,29.05
2022-10-27T12:38:58.908Z,30.28
2022-10-27T12:41:31.675Z,29.00
2022-10-27T12:44:43.164Z,25.82
2022-10-27T12:47:35.991Z,29.20
2022-10-27T12:50:29.453Z,29.92
2022-10-27T12:53:13.087Z,31.43
2022-10-27T12:55:53.365Z,29.79
2022-10-27T12:58:52.770Z,29.94
2022-10-27T13:01:39.342Z,29.06
2022-10-27T13:04:20.724Z,27.95
2022-10-27T13:07:16.395Z,26.68
2022-10-27T13:09:54.435Z,28.87
2022-10-27T13:12:28.195Z,29.92
2022-10-27T13:15:11.791Z,31.12
2022-10-27T13:17:57.099Z,29.00
2022-10-27T13:20:55.111Z,28.96
2022-10-27T13:23:34.528Z,29.93
2022-10-27T13:26:20.306Z,29.44
2022-10-27T13:28:56.273Z,30.36
2022-10-27T13:31:24.510Z,29.40
2022-10-27T13:34:09.503Z,29.32
2022-10-27T13:36:37.447Z,29.08
2022-10-27T13:39:16.400Z,27.94
2022-10-27T13:41:56.010Z,28.81
2022-10-27T13:44:39.699Z,28.70
2022-10-27T13:47:12.135Z,28.06
2022-10-27T13:49:41.383Z,27.12
2022-10-27T13:52:16.846Z,24.00
2022-10-27T13:54:58.375Z,23.06
2022-10-27T13:58:00.617Z,22.44
2022-10-27T14:01:05.090Z,21.86
2022-10-27T14:06:09.990Z,21.37
2022-10-27T14:08:48.931Z,20.58
2022-10-27T14:11:24.939Z,20.79
2022-10-27T14:13:55.831Z,20.78
2022-10-27T14:16:26.591Z,20.63
2022-10-27T14:19:12.510Z,20.62
2022-10-27T14:21:48.922Z,20.22
2022-10-27T14:24:21.250Z,19.98
2022-10-27T14:26:47.759Z,19.47
2022-10-27T14:29:23.776Z,19.47
2022-10-27T14:31:50.275Z,19.15
2022-10-27T14:34:22.528Z,19.02
2022-10-27T14:36:49.978Z,19.16
2022-10-27T14:39:22.417Z,19.14
2022-10-27T14:41:50.529Z,19.31
2022-10-27T14:44:27.418Z,19.04
2022-10-27T14:47:00.028Z,19.25
2022-10-27T14:49:37.235Z,19.17
2022-10-27T14:52:08.129Z,19.09
2022-10-27T14:54:34.623Z,18.92
2022-10-27T14:57:28.942Z,18.91
2022-10-27T14:59:55.363Z,18.99
2022-10-27T15:02:23.145Z,19.23
2022-10-27T15:04:49.573Z,19.42
2022-10-27T15:07:20.073Z,19.31
2022-10-27T15:09:52.783Z,19.33
2022-10-27T15:12:21.225Z,19.26
2022-10-27T15:14:48.125Z,19.30
2022-10-27T15:17:23.220Z,19.12
2022-10-27T15:19:56.436Z,19.21
2022-10-27T15:22:23.855Z,19.11
2022-10-27T15:24:50.737Z,18.88
2022-10-27T15:27:17.729Z,19.02
2022-10-27T15:29:46.027Z,18.96
2022-10-27T15:32:21.882Z,18.81
2022-10-27T15:34:49.126Z,18.71
2022-10-27T15:37:26.238Z,18.60
2022-10-27T15:39:54.021Z,18.53
2022-10-27T15:42:23.914Z,18.61
2022-10-27T15:44:50.788Z,18.54
2022-10-27T15:47:42.705Z,18.54
2022-10-27T15:50:24.389Z,18.12
2022-10-27T15:52:54.035Z,18.15
2022-10-27T15:55:23.584Z,17.95
2022-10-27T15:57:50.487Z,18.06
2022-10-27T16:00:24.756Z,17.98
2022-10-27T16:02:59.306Z,17.82
2022-10-27T16:05:31.611Z,17.70
2022-10-27T16:07:59.401Z,17.63
2022-10-27T16:10:27.937Z,17.60
2022-10-27T16:12:55.693Z,17.61
2022-10-27T16:15:25.229Z,17.51
2022-10-27T16:17:54.770Z,17.55
2022-10-27T16:20:33.891Z,17.52
2022-10-27T16:23:01.455Z,17.52
2022-10-27T16:25:30.377Z,17.44
2022-10-27T16:27:57.510Z,17.44
2022-10-27T16:30:23.977Z,17.33
2022-10-27T16:33:04.169Z,17.28
2022-10-27T16:35:33.978Z,17.15
2022-10-27T16:38:01.129Z,17.05
2022-10-27T16:40:27.961Z,16.92
2022-10-27T16:42:58.147Z,16.92
2022-10-27T16:45:24.743Z,16.93
2022-10-27T16:47:52.479Z,16.94
2022-10-27T16:50:19.340Z,16.84
2022-10-27T16:52:51.701Z,16.83
2022-10-27T16:55:18.134Z,16.77
2022-10-27T16:57:48.744Z,16.58
2022-10-27T17:00:16.630Z,16.49
2022-10-27T17:02:43.013Z,16.46
2022-10-27T17:05:09.620Z,16.41
2022-10-27T17:07:39.223Z,16.13
2022-10-27T17:10:06.406Z,15.93
2022-10-27T17:12:33.034Z,16.10
2022-10-27T17:14:59.387Z,16.12
2022-10-27T17:17:25.772Z,16.24
2022-10-27T17:19:52.225Z,16.04
2022-10-27T17:22:18.617Z,15.91
2022-10-27T17:24:45.023Z,15.84
2022-10-27T17:27:11.652Z,15.90
2022-10-27T17:29:38.106Z,15.93
2022-10-27T17:32:04.643Z,15.74
2022-10-27T17:34:32.130Z,15.70
2022-10-27T17:36:59.323Z,15.64
2022-10-27T17:39:25.681Z,15.64
2022-10-27T17:41:52.067Z,15.57
2022-10-27T17:44:18.658Z,15.83
2022-10-27T17:46:45.067Z,15.93
2022-10-27T17:49:11.488Z,16.03
2022-10-27T17:51:38.059Z,15.94
2022-10-27T17:54:04.523Z,16.33
2022-10-27T17:56:33.437Z,16.61
2022-10-27T17:59:00.076Z,16.43
2022-10-27T18:01:31.901Z,16.53
2022-10-27T18:04:06.924Z,16.55
2022-10-27T18:06:34.037Z,16.57
2022-10-27T18:09:02.288Z,16.58
2022-10-27T18:11:32.027Z,16.56
2022-10-27T18:14:03.362Z,16.47
2022-10-27T18:16:32.699Z,16.43
2022-10-27T18:19:03.822Z,16.21
2022-10-27T18:21:32.187Z,16.15
2022-10-27T18:24:00.292Z,16.17
2022-10-27T18:26:28.234Z,16.07
2022-10-27T18:28:54.950Z,16.13
2022-10-27T18:31:24.210Z,16.22
2022-10-27T18:33:50.989Z,16.09
2022-10-27T18:36:20.285Z,15.95
2022-10-27T18:38:47.323Z,15.92
2022-10-27T18:41:16.021Z,15.68
2022-10-27T18:43:46.793Z,15.71
2022-10-27T18:46:14.606Z,15.75
2022-10-27T18:48:41.240Z,15.75
2022-10-27T18:51:12.726Z,15.76
2022-10-27T18:53:39.430Z,15.85
2022-10-27T18:56:08.313Z,15.76
2022-10-27T18:58:36.310Z,15.63
2022-10-27T19:01:11.529Z,15.54
2022-10-27T19:03:38.779Z,15.40
2022-10-27T19:06:07.705Z,15.40
2022-10-27T19:08:34.726Z,15.46
2022-10-27T19:11:06.713Z,15.50
2022-10-27T19:13:34.864Z,15.49
2022-10-27T19:16:06.846Z,15.45
2022-10-27T19:18:33.771Z,15.53
2022-10-27T19:21:02.434Z,15.56
2022-10-27T19:23:30.017Z,15.48
2022-10-27T19:26:05.089Z,15.34
2022-10-27T19:28:32.478Z,15.35
2022-10-27T19:30:58.864Z,15.43
2022-10-27T19:33:25.701Z,15.38
2022-10-27T19:35:53.685Z,15.23
2022-10-27T19:38:21.351Z,15.09
2022-10-27T19:40:47.879Z,15.01
2022-10-27T19:43:14.411Z,15.27
2022-10-27T19:45:48.142Z,15.18
2022-10-27T19:48:17.412Z,15.22
2022-10-27T19:50:44.263Z,15.00
2022-10-27T19:53:11.499Z,15.16
2022-10-27T19:55:38.025Z,15.04
2022-10-27T19:58:04.534Z,15.07
2022-10-27T20:00:31.016Z,15.10
2022-10-27T20:02:58.046Z,15.09
2022-10-27T20:05:24.509Z,14.99
2022-10-27T20:07:51.910Z,14.96
2022-10-27T20:10:19.247Z,14.96
2022-10-27T20:12:45.755Z,14.67
2022-10-27T20:15:12.772Z,14.62
2022-10-27T20:17:39.374Z,14.64
2022-10-27T20:20:07.123Z,14.70
2022-10-27T20:22:33.516Z,14.67
2022-10-27T20:24:59.889Z,14.57
2022-10-27T20:27:29.282Z,14.63
2022-10-27T20:29:55.780Z,14.48
2022-10-27T20:32:23.752Z,14.36
2022-10-27T20:34:50.216Z,14.20
2022-10-27T20:37:16.686Z,14.11
2022-10-27T20:39:43.105Z,13.98
2022-10-27T20:42:09.565Z,13.96
2022-10-27T20:44:35.937Z,13.94
2022-10-27T20:47:02.424Z,13.83
2022-10-27T20:49:28.779Z,13.80
2022-10-27T20:51:55.177Z,13.82
2022-10-27T20:54:21.529Z,13.74
2022-10-27T20:56:49.109Z,13.73
2022-10-27T20:59:19.981Z,13.57
2022-10-27T21:01:49.165Z,13.41
2022-10-27T21:04:21.934Z,13.45
2022-10-27T21:06:50.447Z,13.24
2022-10-27T21:09:19.056Z,13.31
2022-10-27T21:11:46.815Z,13.28
2022-10-27T21:14:13.608Z,13.27
2022-10-27T21:16:40.511Z,13.24
2022-10-27T21:19:09.325Z,13.16
2022-10-27T21:21:36.321Z,13.04
2022-10-27T21:24:03.950Z,13.01
2022-10-27T21:26:30.453Z,12.94
2022-10-27T21:28:58.466Z,12.78
2022-10-27T21:31:28.620Z,12.74
2022-10-27T21:33:55.776Z,12.47
2022-10-27T21:36:22.348Z,12.54
2022-10-27T21:38:50.436Z,12.55
2022-10-27T21:41:19.765Z,12.43
2022-10-27T21:43:49.600Z,12.45
2022-10-27T21:46:19.218Z,12.45
2022-10-27T21:48:46.073Z,12.39
2022-10-27T21:51:14.189Z,12.43
2022-10-27T21:53:41.346Z,12.45
2022-10-27T21:56:09.967Z,12.42
2022-10-27T21:58:37.043Z,12.33
2022-10-27T22:01:22.250Z,12.34
2022-10-27T22:03:48.779Z,12.21
2022-10-27T22:06:16.555Z,12.19
2022-10-27T22:08:43.729Z,12.12
2022-10-27T22:11:15.126Z,11.90
2022-10-27T22:13:42.051Z,12.03
2022-10-27T22:16:10.804Z,12.03
2022-10-27T22:18:38.135Z,11.96
2022-10-27T22:21:05.923Z,11.95
2022-10-27T22:23:33.688Z,11.88
2022-10-27T22:26:26.938Z,11.91
2022-10-27T22:28:54.015Z,11.74
2022-10-27T22:31:23.441Z,11.81
2022-10-27T22:33:51.130Z,11.76
2022-10-27T22:36:19.087Z,11.69
2022-10-27T22:38:46.012Z,11.54
2022-10-27T22:41:16.249Z,11.57
2022-10-27T22:43:44.132Z,11.49
2022-10-27T22:46:16.698Z,11.52
2022-10-27T22:48:43.091Z,11.52
2022-10-27T22:51:14.250Z,11.52
2022-10-27T22:53:42.073Z,11.46
2022-10-27T22:56:12.931Z,11.45
2022-10-27T22:58:39.807Z,11.22
2022-10-27T23:01:08.785Z,11.33
2022-10-27T23:03:35.875Z,11.40
2022-10-27T23:06:03.287Z,11.46
2022-10-27T23:08:30.289Z,11.49
2022-10-27T23:10:58.650Z,11.40
2022-10-27T23:13:26.509Z,11.42
2022-10-27T23:15:54.661Z,11.41
2022-10-27T23:18:21.253Z,11.23
2022-10-27T23:20:47.701Z,11.26
2022-10-27T23:23:14.133Z,11.26
2022-10-27T23:25:40.565Z,11.28
2022-10-27T23:28:07.206Z,11.36
2022-10-27T23:30:33.967Z,11.33
2022-10-27T23:33:00.416Z,11.29
2022-10-27T23:35:26.762Z,11.16
2022-10-27T23:37:53.388Z,11.14
2022-10-27T23:40:19.884Z,11.20
2022-10-27T23:42:46.398Z,11.26
2022-10-27T23:45:12.899Z,11.29
2022-10-27T23:47:39.336Z,11.29
2022-10-27T23:50:06.096Z,11.32
2022-10-27T23:52:32.635Z,11.14
2022-10-27T23:54:59.262Z,11.08
2022-10-27T23:57:25.649Z,10.96
2022-10-27T23:59:52.152Z,11.02
